createdAt,value
2023-01-27T00:01:24.259Z,-1.04
2023-01-27T00:03:52.165Z,-1.14
2023-01-27T00:06:20.842Z,-1.12
2023-01-27T00:08:48.841Z,-1.08
2023-01-27T00:11:35.271Z,-1.03
2023-01-27T00:14:03.289Z,-1.05
2023-01-27T00:16:31.340Z,-1.05
2023-01-27T00:18:59.383Z,-1.00
2023-01-27T00:21:46.276Z,-0.96
2023-01-27T00:24:32.984Z,-1.01
2023-01-27T00:27:00.921Z,-0.96
2023-01-27T00:29:28.825Z,-0.99
2023-01-27T00:32:15.553Z,-1.07
2023-01-27T00:34:43.585Z,-1.08
2023-01-27T00:37:11.469Z,-1.06
2023-01-27T00:39:39.370Z,-1.00
2023-01-27T00:42:10.565Z,-1.03
2023-01-27T00:44:38.543Z,-1.10
2023-01-27T00:47:07.024Z,-1.07
2023-01-27T00:49:34.988Z,-1.09
2023-01-27T00:52:02.900Z,-1.05
2023-01-27T00:54:30.880Z,-1.07
2023-01-27T00:56:59.050Z,-1.10
2023-01-27T00:59:26.987Z,-1.12
2023-01-27T01:01:54.963Z,-1.02
2023-01-27T01:04:23.061Z,-1.04
2023-01-27T01:06:51.647Z,-1.05
2023-01-27T01:09:19.827Z,-1.07
2023-01-27T01:11:49.129Z,-1.04
2023-01-27T01:14:16.990Z,-1.08
2023-01-27T01:16:44.983Z,-1.05
2023-01-27T01:19:14.899Z,-1.06
2023-01-27T01:21:42.843Z,-1.01
2023-01-27T01:24:11.569Z,-1.02
2023-01-27T01:26:39.661Z,-1.05
2023-01-27T01:29:07.698Z,-1.05
2023-01-27T01:31:35.790Z,-1.02
2023-01-27T01:34:05.032Z,-1.03
2023-01-27T01:36:33.762Z,-1.05
2023-01-27T01:39:01.710Z,-0.99
2023-01-27T01:41:30.386Z,-0.90
2023-01-27T01:43:58.367Z,-0.91
2023-01-27T01:46:26.398Z,-0.89
2023-01-27T01:49:01.838Z,-0.92
2023-01-27T01:51:40.251Z,-0.91
2023-01-27T01:54:17.110Z,-0.94
2023-01-27T01:56:47.982Z,-0.88
2023-01-27T01:59:19.435Z,-0.87
2023-01-27T02:01:47.797Z,-0.88
2023-01-27T02:04:18.637Z,-0.87
2023-01-27T02:06:50.965Z,-0.92
2023-01-27T02:09:20.732Z,-0.93
2023-01-27T02:11:48.712Z,-1.01
2023-01-27T02:14:17.719Z,-0.95
2023-01-27T02:16:47.070Z,-0.94
2023-01-27T02:19:22.495Z,-0.94
2023-01-27T02:21:51.315Z,-0.95
2023-01-27T02:24:19.676Z,-1.02
2023-01-27T02:26:47.698Z,-1.11
2023-01-27T02:29:16.141Z,-1.07
2023-01-27T02:31:44.373Z,-1.07
2023-01-27T02:34:15.016Z,-1.13
2023-01-27T02:36:51.238Z,-1.10
2023-01-27T02:39:20.524Z,-1.14
2023-01-27T02:41:52.976Z,-1.11
2023-01-27T02:44:21.133Z,-1.15
2023-01-27T02:46:49.066Z,-1.09
2023-01-27T02:49:17.043Z,-1.12
2023-01-27T02:51:45.795Z,-1.20
2023-01-27T02:54:13.923Z,-1.21
2023-01-27T02:56:42.856Z,-1.32
2023-01-27T02:59:11.198Z,-1.23
2023-01-27T03:01:40.874Z,-1.15
2023-01-27T03:04:12.064Z,-1.06
2023-01-27T03:06:40.344Z,-1.02
2023-01-27T03:09:08.235Z,-0.97
2023-01-27T03:11:54.805Z,-0.97
2023-01-27T03:14:22.842Z,-0.94
2023-01-27T03:17:09.719Z,-0.99
2023-01-27T03:19:38.250Z,-1.05
2023-01-27T03:22:06.525Z,-1.01
2023-01-27T03:24:35.025Z,-1.01
2023-01-27T03:27:05.907Z,-0.97
2023-01-27T03:29:56.787Z,-0.97
2023-01-27T03:32:26.075Z,-0.94
2023-01-27T03:35:15.519Z,-0.90
2023-01-27T03:38:04.112Z,-0.88
2023-01-27T03:40:50.555Z,-0.84
2023-01-27T03:43:37.663Z,-0.81
2023-01-27T03:46:18.810Z,-0.77
2023-01-27T03:48:51.507Z,-0.79
2023-01-27T03:51:20.755Z,-0.76
2023-01-27T03:53:49.481Z,-0.78
2023-01-27T03:56:18.243Z,-0.86
2023-01-27T03:58:48.098Z,-0.82
2023-01-27T04:01:17.901Z,-0.80
2023-01-27T04:04:04.923Z,-0.74
2023-01-27T04:06:53.484Z,-0.73
2023-01-27T04:09:39.703Z,-0.74
2023-01-27T04:12:07.981Z,-0.75
2023-01-27T04:14:43.490Z,-0.73
2023-01-27T04:17:13.248Z,-0.73
2023-01-27T04:19:41.720Z,-0.70
2023-01-27T04:22:11.459Z,-0.75
2023-01-27T04:24:39.830Z,-0.76
2023-01-27T04:27:12.102Z,-0.80
2023-01-27T04:29:41.331Z,-0.84
2023-01-27T04:32:11.035Z,-0.91
2023-01-27T04:34:39.716Z,-0.88
2023-01-27T04:37:08.451Z,-0.82
2023-01-27T04:39:36.790Z,-0.77
2023-01-27T04:42:04.800Z,-0.76
2023-01-27T04:44:32.691Z,-0.83
2023-01-27T04:47:00.650Z,-0.88
2023-01-27T04:49:28.597Z,-0.87
2023-01-27T04:51:56.599Z,-0.97
2023-01-27T04:54:24.427Z,-0.97
2023-01-27T04:57:03.702Z,-1.04
2023-01-27T04:59:31.725Z,-1.16
2023-01-27T05:01:59.820Z,-1.13
2023-01-27T05:04:27.830Z,-1.15
2023-01-27T05:06:56.009Z,-1.07
2023-01-27T05:09:24.132Z,-1.07
2023-01-27T05:11:52.164Z,-1.09
2023-01-27T05:14:20.270Z,-1.07
2023-01-27T05:16:48.270Z,-1.17
2023-01-27T05:19:16.379Z,-1.24
2023-01-27T05:21:44.566Z,-1.23
2023-01-27T05:24:12.515Z,-1.17
2023-01-27T05:26:41.136Z,-1.15
2023-01-27T05:29:09.211Z,-1.09
2023-01-27T05:31:37.281Z,-1.09
2023-01-27T05:34:05.470Z,-1.04
2023-01-27T05:36:33.495Z,-1.02
2023-01-27T05:39:01.565Z,-0.98
2023-01-27T05:41:32.925Z,-0.93
2023-01-27T05:44:00.961Z,-0.90
2023-01-27T05:46:30.320Z,-0.92
2023-01-27T05:49:03.045Z,-0.90
2023-01-27T05:51:32.332Z,-0.83
2023-01-27T05:54:01.076Z,-0.77
2023-01-27T05:56:30.236Z,-0.71
2023-01-27T05:58:58.460Z,-0.68
2023-01-27T06:01:28.190Z,-0.62
2023-01-27T06:03:56.606Z,-0.57
2023-01-27T06:06:26.339Z,-0.54
2023-01-27T06:08:54.205Z,-0.53
2023-01-27T06:11:22.805Z,-0.56
2023-01-27T06:13:51.752Z,-0.55
2023-01-27T06:16:20.805Z,-0.55
2023-01-27T06:18:49.484Z,-0.57
2023-01-27T06:21:17.883Z,-0.59
2023-01-27T06:23:45.900Z,-0.60
2023-01-27T06:26:16.615Z,-0.54
2023-01-27T06:28:45.138Z,-0.54
2023-01-27T06:31:15.085Z,-0.64
2023-01-27T06:33:43.209Z,-0.68
2023-01-27T06:36:13.183Z,-0.66
2023-01-27T06:38:41.655Z,-0.65
2023-01-27T06:41:09.783Z,-0.61
2023-01-27T06:43:37.912Z,-0.59
2023-01-27T06:46:06.396Z,-0.55
2023-01-27T06:48:34.499Z,-0.54
2023-01-27T06:51:02.520Z,-0.63
2023-01-27T06:53:31.509Z,-0.65
2023-01-27T06:56:01.033Z,-0.65
2023-01-27T06:58:29.487Z,-0.67
2023-01-27T07:00:57.581Z,-0.62
2023-01-27T07:03:26.871Z,-0.62
2023-01-27T07:05:54.777Z,-0.62
2023-01-27T07:08:22.841Z,-0.51
2023-01-27T07:10:50.959Z,-0.42
2023-01-27T07:13:19.133Z,-0.31
2023-01-27T07:15:47.688Z,-0.24
2023-01-27T07:18:15.788Z,-0.24
2023-01-27T07:20:43.726Z,-0.23
2023-01-27T07:23:13.282Z,-0.30
2023-01-27T07:25:41.604Z,-0.26
2023-01-27T07:28:09.511Z,-0.19
2023-01-27T07:30:39.089Z,-0.11
2023-01-27T07:33:08.754Z,-0.12
2023-01-27T07:35:37.690Z,-0.12
2023-01-27T07:38:06.610Z,-0.13
2023-01-27T07:40:35.130Z,-0.20
2023-01-27T07:43:03.065Z,-0.16
2023-01-27T07:45:31.391Z,-0.23
2023-01-27T07:48:00.099Z,-0.27
2023-01-27T07:50:28.955Z,-0.34
2023-01-27T07:53:01.320Z,-0.32
2023-01-27T07:55:30.395Z,-0.31
2023-01-27T07:57:58.764Z,-0.34
2023-01-27T08:00:28.382Z,-0.32
2023-01-27T08:02:57.352Z,-0.31
2023-01-27T08:05:26.028Z,-0.28
2023-01-27T08:07:54.760Z,-0.27
2023-01-27T08:10:22.909Z,-0.23
2023-01-27T08:12:50.961Z,-0.21
2023-01-27T08:15:19.429Z,-0.09
2023-01-27T08:17:54.820Z,-0.07
2023-01-27T08:20:24.443Z,-0.03
2023-01-27T08:22:52.945Z,0.09
2023-01-27T08:25:21.164Z,0.17
2023-01-27T08:27:53.256Z,0.29
2023-01-27T08:30:21.904Z,0.38
2023-01-27T08:32:50.521Z,0.44
2023-01-27T08:35:18.730Z,0.54
2023-01-27T08:37:48.963Z,0.56
2023-01-27T08:40:17.727Z,0.48
2023-01-27T08:42:45.706Z,0.45
2023-01-27T08:45:13.766Z,0.65
2023-01-27T08:47:41.849Z,0.69
2023-01-27T08:50:10.351Z,0.72
2023-01-27T08:52:38.731Z,0.77
2023-01-27T08:55:06.837Z,0.72
2023-01-27T08:57:36.865Z,0.76
2023-01-27T09:00:06.471Z,0.77
2023-01-27T09:02:34.986Z,0.92
2023-01-27T09:05:03.056Z,1.04
2023-01-27T09:07:31.017Z,1.14
2023-01-27T09:10:13.062Z,1.10
2023-01-27T09:12:43.066Z,1.23
2023-01-27T09:15:11.780Z,1.23
2023-01-27T09:17:39.909Z,1.51
2023-01-27T09:20:08.524Z,1.78
2023-01-27T09:22:39.830Z,1.86
2023-01-27T09:25:09.683Z,1.96
2023-01-27T09:27:41.115Z,2.07
2023-01-27T09:30:12.450Z,2.13
2023-01-27T09:32:40.784Z,2.24
2023-01-27T09:35:09.197Z,2.41
2023-01-27T09:37:41.302Z,2.43
2023-01-27T09:40:17.260Z,2.35
2023-01-27T09:42:48.397Z,2.28
2023-01-27T09:45:16.307Z,2.24
2023-01-27T09:47:53.720Z,2.23
2023-01-27T09:50:21.658Z,2.18
2023-01-27T09:52:52.835Z,2.23
2023-01-27T09:55:23.978Z,2.22
2023-01-27T09:58:01.179Z,2.26
2023-01-27T10:00:29.065Z,2.41
2023-01-27T10:03:06.595Z,2.47
2023-01-27T10:05:53.446Z,2.68
2023-01-27T10:08:45.002Z,2.77
2023-01-27T10:11:32.207Z,2.83
2023-01-27T10:14:08.481Z,2.90
2023-01-27T10:16:36.740Z,2.79
2023-01-27T10:19:41.980Z,2.74
2023-01-27T10:22:15.689Z,2.93
2023-01-27T10:24:43.829Z,3.02
2023-01-27T10:27:22.305Z,3.08
2023-01-27T10:29:55.964Z,3.26
2023-01-27T10:32:24.284Z,3.38
2023-01-27T10:35:08.410Z,3.31
2023-01-27T10:37:51.478Z,3.37
2023-01-27T10:40:38.257Z,3.37
2023-01-27T10:43:17.368Z,3.34
2023-01-27T10:46:01.176Z,3.33
2023-01-27T10:48:41.329Z,3.40
2023-01-27T10:51:09.268Z,3.33
2023-01-27T10:53:37.099Z,3.34
2023-01-27T10:56:09.598Z,3.34
2023-01-27T10:58:56.258Z,3.39
2023-01-27T11:01:36.367Z,3.47
2023-01-27T11:04:14.243Z,3.59
2023-01-27T11:06:43.625Z,3.53
2023-01-27T11:09:11.723Z,3.57
2023-01-27T11:11:46.225Z,3.70
2023-01-27T11:14:17.589Z,3.93
2023-01-27T11:16:50.262Z,3.89
2023-01-27T11:19:30.587Z,3.80
2023-01-27T11:22:07.845Z,3.95
2023-01-27T11:24:42.643Z,4.06
2023-01-27T11:27:27.277Z,3.99
2023-01-27T11:30:02.679Z,3.88
2023-01-27T11:32:42.036Z,3.73
2023-01-27T11:35:12.099Z,3.61
2023-01-27T11:37:45.701Z,3.48
2023-01-27T11:40:17.543Z,3.36
2023-01-27T11:42:45.850Z,3.32
2023-01-27T11:45:14.891Z,3.19
2023-01-27T11:47:43.706Z,3.15
2023-01-27T11:50:16.393Z,3.11
2023-01-27T11:53:03.108Z,3.18
2023-01-27T11:55:37.414Z,3.10
2023-01-27T11:58:11.688Z,3.09
2023-01-27T12:00:52.066Z,3.09
2023-01-27T12:03:20.453Z,3.08
2023-01-27T12:05:52.658Z,3.21
2023-01-27T12:08:39.360Z,3.27
2023-01-27T12:11:24.932Z,3.30
2023-01-27T12:13:57.150Z,3.26
2023-01-27T12:16:40.832Z,3.23
2023-01-27T12:19:21.375Z,3.21
2023-01-27T12:21:53.990Z,3.13
2023-01-27T12:24:28.588Z,3.09
2023-01-27T12:26:57.466Z,3.05
2023-01-27T12:29:33.784Z,2.98
2023-01-27T12:32:01.848Z,2.90
2023-01-27T12:34:33.716Z,2.79
2023-01-27T12:37:03.950Z,2.77
2023-01-27T12:39:31.857Z,2.82
2023-01-27T12:42:00.025Z,2.71
2023-01-27T12:44:40.054Z,2.70
2023-01-27T12:47:27.729Z,2.74
2023-01-27T12:50:19.702Z,2.79
2023-01-27T12:52:54.632Z,2.76
2023-01-27T12:55:36.566Z,2.75
2023-01-27T12:58:05.024Z,2.69
2023-01-27T13:00:34.685Z,2.69
2023-01-27T13:03:10.105Z,2.68
2023-01-27T13:05:39.799Z,2.61
2023-01-27T13:08:13.579Z,2.64
2023-01-27T13:10:49.452Z,2.70
2023-01-27T13:13:23.557Z,2.73
2023-01-27T13:16:11.940Z,2.79
2023-01-27T13:18:42.463Z,2.72
2023-01-27T13:21:11.441Z,2.75
2023-01-27T13:23:41.479Z,2.73
2023-01-27T13:26:09.632Z,2.71
2023-01-27T13:28:52.270Z,2.72
2023-01-27T13:31:22.335Z,2.74
2023-01-27T13:33:53.912Z,2.72
2023-01-27T13:36:32.651Z,2.61
2023-01-27T13:39:00.891Z,2.55
2023-01-27T13:41:37.161Z,2.49
2023-01-27T13:44:18.046Z,2.42
2023-01-27T13:46:47.937Z,2.46
2023-01-27T13:49:21.197Z,2.47
2023-01-27T13:51:49.231Z,2.40
2023-01-27T13:54:17.350Z,2.37
2023-01-27T13:56:54.393Z,2.31
2023-01-27T13:59:22.260Z,2.28
2023-01-27T14:02:13.361Z,2.27
2023-01-27T14:04:53.522Z,2.25
2023-01-27T14:07:48.949Z,2.17
2023-01-27T14:10:35.957Z,2.11
2023-01-27T14:13:03.949Z,1.97
2023-01-27T14:15:34.978Z,1.91
2023-01-27T14:18:02.965Z,1.88
2023-01-27T14:20:37.148Z,1.83
2023-01-27T14:23:05.471Z,1.83
2023-01-27T14:25:33.705Z,1.73
2023-01-27T14:28:10.725Z,1.72
2023-01-27T14:30:41.675Z,1.71
2023-01-27T14:33:18.840Z,1.69
2023-01-27T14:36:00.037Z,1.67
2023-01-27T14:38:32.591Z,1.64
2023-01-27T14:41:03.536Z,1.61
2023-01-27T14:43:41.751Z,1.56
2023-01-27T14:46:14.702Z,1.51
2023-01-27T14:48:43.442Z,1.46
2023-01-27T14:51:30.139Z,1.41
2023-01-27T14:54:05.393Z,1.39
2023-01-27T14:56:48.130Z,1.36
2023-01-27T14:59:54.644Z,1.30
2023-01-27T15:02:28.613Z,1.29
2023-01-27T15:05:05.574Z,1.24
2023-01-27T15:07:40.680Z,1.20
2023-01-27T15:10:22.018Z,1.19
2023-01-27T15:12:57.824Z,1.18
2023-01-27T15:15:38.358Z,1.16
2023-01-27T15:18:25.563Z,1.15
2023-01-27T15:20:54.332Z,1.12
2023-01-27T15:23:34.700Z,1.12
2023-01-27T15:26:06.769Z,1.11
2023-01-27T15:28:38.544Z,1.08
2023-01-27T15:31:06.994Z,1.11
2023-01-27T15:33:54.018Z,1.10
2023-01-27T15:36:28.223Z,1.09
2023-01-27T15:39:06.020Z,1.07
2023-01-27T15:41:34.001Z,1.08
2023-01-27T15:44:17.010Z,1.07
2023-01-27T15:46:49.512Z,1.03
2023-01-27T15:49:19.659Z,0.98
2023-01-27T15:51:48.456Z,0.95
2023-01-27T15:54:24.424Z,0.94
2023-01-27T15:56:53.821Z,0.91
2023-01-27T15:59:26.813Z,0.90
2023-01-27T16:02:14.336Z,0.87
2023-01-27T16:04:42.832Z,0.88
2023-01-27T16:07:31.255Z,0.86
2023-01-27T16:10:00.129Z,0.86
2023-01-27T16:12:30.874Z,0.87
2023-01-27T16:15:01.935Z,0.87
2023-01-27T16:17:33.354Z,0.86
2023-01-27T16:20:21.016Z,0.87
2023-01-27T16:22:53.679Z,0.88
2023-01-27T16:25:45.353Z,0.87
2023-01-27T16:28:16.470Z,0.87
2023-01-27T16:30:49.703Z,0.86
2023-01-27T16:33:17.710Z,0.88
2023-01-27T16:35:49.993Z,0.88
2023-01-27T16:38:24.456Z,0.91
2023-01-27T16:40:54.973Z,0.93
2023-01-27T16:43:25.784Z,0.93
2023-01-27T16:45:54.788Z,0.94
2023-01-27T16:48:26.452Z,0.94
2023-01-27T16:50:55.897Z,0.94
2023-01-27T16:53:25.578Z,0.93
2023-01-27T16:56:01.464Z,0.88
2023-01-27T16:58:43.840Z,0.88
2023-01-27T17:01:31.017Z,0.89
2023-01-27T17:04:10.801Z,0.93
2023-01-27T17:06:47.744Z,0.94
2023-01-27T17:09:21.021Z,0.96
2023-01-27T17:11:49.694Z,0.95
2023-01-27T17:14:29.988Z,0.94
2023-01-27T17:17:01.148Z,0.96
2023-01-27T17:19:38.412Z,0.97
2023-01-27T17:22:18.688Z,0.95
2023-01-27T17:24:50.155Z,0.96
2023-01-27T17:27:24.112Z,0.93
2023-01-27T17:30:00.137Z,0.88
2023-01-27T17:32:31.154Z,0.87
2023-01-27T17:35:00.398Z,0.89
2023-01-27T17:37:30.291Z,0.89
2023-01-27T17:39:59.810Z,0.91
2023-01-27T17:42:31.815Z,0.86
2023-01-27T17:45:18.865Z,0.83
2023-01-27T17:47:47.141Z,0.87
2023-01-27T17:50:19.997Z,0.93
2023-01-27T17:52:52.601Z,0.91
2023-01-27T17:55:22.144Z,0.88
2023-01-27T17:57:51.200Z,0.92
2023-01-27T18:00:31.109Z,0.94
2023-01-27T18:03:02.871Z,0.94
2023-01-27T18:05:32.611Z,0.94
2023-01-27T18:08:01.722Z,0.96
2023-01-27T18:10:35.714Z,0.98
2023-01-27T18:13:16.018Z,0.95
2023-01-27T18:15:50.951Z,0.96
2023-01-27T18:18:20.829Z,0.94
2023-01-27T18:20:53.314Z,0.92
2023-01-27T18:23:24.334Z,0.85
2023-01-27T18:26:11.277Z,0.83
2023-01-27T18:28:39.884Z,0.77
2023-01-27T18:31:13.611Z,0.73
2023-01-27T18:33:43.057Z,0.69
2023-01-27T18:36:19.583Z,0.69
2023-01-27T18:38:49.915Z,0.66
2023-01-27T18:41:22.718Z,0.68
2023-01-27T18:43:50.650Z,0.66
2023-01-27T18:46:19.060Z,0.65
2023-01-27T18:48:47.116Z,0.65
2023-01-27T18:51:15.710Z,0.69
2023-01-27T18:53:43.586Z,0.60
2023-01-27T18:56:11.759Z,0.58
2023-01-27T18:58:39.743Z,0.50
2023-01-27T19:01:14.006Z,0.48
2023-01-27T19:03:42.233Z,0.46
2023-01-27T19:06:17.377Z,0.45
2023-01-27T19:08:45.454Z,0.53
2023-01-27T19:11:15.090Z,0.57
2023-01-27T19:13:43.669Z,0.60
2023-01-27T19:16:16.339Z,0.63
2023-01-27T19:18:44.711Z,0.58
2023-01-27T19:21:13.620Z,0.59
2023-01-27T19:23:45.815Z,0.55
2023-01-27T19:26:18.158Z,0.47
2023-01-27T19:28:53.919Z,0.51
2023-01-27T19:31:21.874Z,0.50
2023-01-27T19:33:52.434Z,0.45
2023-01-27T19:36:24.541Z,0.39
2023-01-27T19:38:57.586Z,0.32
2023-01-27T19:41:25.523Z,0.24
2023-01-27T19:43:53.537Z,0.27
2023-01-27T19:46:22.295Z,0.31
2023-01-27T19:48:50.739Z,0.32
2023-01-27T19:51:19.847Z,0.31
2023-01-27T19:53:47.719Z,0.32
2023-01-27T19:56:17.265Z,0.35
2023-01-27T19:58:47.376Z,0.38
2023-01-27T20:01:15.439Z,0.42
2023-01-27T20:03:43.387Z,0.38
2023-01-27T20:06:15.682Z,0.35
2023-01-27T20:08:44.093Z,0.36
2023-01-27T20:11:28.476Z,0.38
2023-01-27T20:13:56.636Z,0.32
2023-01-27T20:16:25.826Z,0.27
2023-01-27T20:18:53.899Z,0.26
2023-01-27T20:21:22.410Z,0.23
2023-01-27T20:23:50.321Z,0.16
2023-01-27T20:26:20.821Z,0.19
2023-01-27T20:28:50.044Z,0.17
2023-01-27T20:31:19.309Z,0.17
2023-01-27T20:33:50.304Z,0.17
2023-01-27T20:36:20.149Z,0.22
2023-01-27T20:38:48.395Z,0.24
2023-01-27T20:41:17.663Z,0.23
2023-01-27T20:43:46.027Z,0.24
2023-01-27T20:46:15.187Z,0.16
2023-01-27T20:48:43.596Z,0.19
2023-01-27T20:51:13.117Z,0.20
2023-01-27T20:53:45.448Z,0.26
2023-01-27T20:56:21.409Z,0.30
2023-01-27T20:58:49.463Z,0.33
2023-01-27T21:01:19.433Z,0.34
2023-01-27T21:03:48.052Z,0.29
2023-01-27T21:06:17.863Z,0.26
2023-01-27T21:08:47.790Z,0.17
2023-01-27T21:11:18.406Z,0.15
2023-01-27T21:13:46.575Z,0.18
2023-01-27T21:16:14.569Z,0.25
2023-01-27T21:18:44.074Z,0.28
2023-01-27T21:21:30.736Z,0.24
2023-01-27T21:24:00.485Z,0.19
2023-01-27T21:26:28.443Z,0.17
2023-01-27T21:28:57.053Z,0.24
2023-01-27T21:31:30.028Z,0.30
2023-01-27T21:34:01.060Z,0.34
2023-01-27T21:36:29.015Z,0.35
2023-01-27T21:38:57.909Z,0.32
2023-01-27T21:41:44.791Z,0.31
2023-01-27T21:44:39.154Z,0.32
2023-01-27T21:47:08.121Z,0.31
2023-01-27T21:49:55.787Z,0.32
2023-01-27T21:52:24.490Z,0.35
2023-01-27T21:54:52.708Z,0.34
2023-01-27T21:57:20.790Z,0.35
2023-01-27T21:59:48.723Z,0.39
2023-01-27T22:02:16.971Z,0.39
2023-01-27T22:04:45.880Z,0.39
2023-01-27T22:07:14.744Z,0.38
2023-01-27T22:09:42.935Z,0.36
2023-01-27T22:12:12.045Z,0.36
2023-01-27T22:14:40.002Z,0.36
2023-01-27T22:17:08.176Z,0.36
2023-01-27T22:19:36.933Z,0.41
2023-01-27T22:22:05.313Z,0.45
2023-01-27T22:24:33.234Z,0.50
2023-01-27T22:27:01.623Z,0.51
2023-01-27T22:29:29.637Z,0.58
2023-01-27T22:31:57.690Z,0.63
2023-01-27T22:34:25.559Z,0.71
2023-01-27T22:36:53.448Z,0.72
2023-01-27T22:39:21.629Z,0.68
2023-01-27T22:41:50.628Z,0.65
2023-01-27T22:44:18.771Z,0.67
2023-01-27T22:46:50.224Z,0.72
2023-01-27T22:49:18.282Z,0.64
2023-01-27T22:51:48.699Z,0.60
2023-01-27T22:54:16.804Z,0.61
2023-01-27T22:56:44.718Z,0.58
2023-01-27T22:59:13.313Z,0.57
2023-01-27T23:01:41.249Z,0.60
2023-01-27T23:04:11.303Z,0.60
2023-01-27T23:06:39.144Z,0.56
2023-01-27T23:09:06.991Z,0.59
2023-01-27T23:11:34.862Z,0.61
2023-01-27T23:14:02.800Z,0.67
2023-01-27T23:16:30.690Z,0.71
2023-01-27T23:18:58.540Z,0.75
2023-01-27T23:21:27.001Z,0.79
2023-01-27T23:23:55.048Z,0.79
2023-01-27T23:26:22.949Z,0.65
2023-01-27T23:28:51.009Z,0.62
2023-01-27T23:31:19.027Z,0.72
2023-01-27T23:33:49.196Z,0.75
2023-01-27T23:36:17.087Z,0.81
2023-01-27T23:38:46.882Z,0.79
2023-01-27T23:41:18.431Z,0.74
2023-01-27T23:43:53.996Z,0.79
2023-01-27T23:46:22.426Z,0.73
2023-01-27T23:48:54.869Z,0.69
2023-01-27T23:51:23.560Z,0.70
2023-01-27T23:53:51.736Z,0.69
2023-01-27T23:56:20.627Z,0.74
2023-01-27T23:58:48.615Z,0.79
